| Date | Time | Temp. (oF) | Dew Point (oF) | Rel. Hum. (%) | Press. (in.) | Wind Dir. | Wind Speed (mph) | Hourly Rainfall (in.) |
|
|---|---|---|---|---|---|---|---|---|---|
| 1 | 06/03 | 00:00 | 57 | 50 | 78 | 30.02 | SSW | 1 | 0.00 |
| 2 | 06/02 | 23:00 | 58 | 49 | 72 | 30.02 | SSW | 2 | 0.00 |
| 3 | 06/02 | 22:00 | 62 | 48 | 61 | 30.00 | SSW | 0 | 0.00 |
| 4 | 06/02 | 21:00 | 64 | 46 | 54 | 29.98 | SSW | 3 | 0.00 |
| 5 | 06/02 | 20:00 | 68 | 47 | 48 | 29.96 | S | 4 | 0.00 |
| 6 | 06/02 | 19:00 | 70 | 46 | 43 | 29.95 | WSW | 3 | 0.00 |
| 7 | 06/02 | 18:00 | 71 | 46 | 42 | 29.94 | WNW | 11 | 0.00 |
| 8 | 06/02 | 17:00 | 72 | 48 | 43 | 29.94 | WNW | 3 | 0.00 |
| 9 | 06/02 | 16:00 | 71 | 49 | 46 | 29.96 | W | 3 | 0.00 |
| 10 | 06/02 | 15:00 | 70 | 47 | 45 | 29.97 | WSW | 8 | 0.00 |
| 11 | 06/02 | 14:00 | 68 | 44 | 43 | 29.99 | WSW | 7 | 0.00 |
| 12 | 06/02 | 13:00 | 67 | 45 | 47 | 30.01 | W | 6 | 0.00 |
| 13 | 06/02 | 12:00 | 65 | 45 | 50 | 30.03 | N | 7 | 0.00 |
| 14 | 06/02 | 11:00 | 62 | 45 | 54 | 30.02 | NNW | 5 | 0.00 |
| 15 | 06/02 | 10:00 | 59 | 44 | 59 | 30.02 | N | 1 | 0.00 |
| 16 | 06/02 | 09:00 | 56 | 43 | 64 | 30.01 | W | 10 | 0.00 |
| 17 | 06/02 | 08:00 | 53 | 43 | 71 | 30.01 | WNW | 7 | 0.00 |
| 18 | 06/02 | 07:00 | 48 | 42 | 81 | 29.99 | SW | 3 | 0.00 |
| 19 | 06/02 | 06:00 | 45 | 40 | 85 | 29.96 | WSW | 2 | 0.00 |
| 20 | 06/02 | 05:00 | 43 | 41 | 96 | 29.94 | W | 1 | 0.00 |
| 21 | 06/02 | 04:00 | 45 | 44 | 97 | 29.93 | WSW | 1 | 0.00 |
| 22 | 06/02 | 03:00 | 46 | 44 | 96 | 29.91 | SW | 1 | 0.00 |
| 23 | 06/02 | 02:00 | 48 | 46 | 94 | 29.91 | SSW | 1 | 0.00 |
| 24 | 06/02 | 01:00 | 50 | 48 | 93 | 29.90 | SW | 2 | 0.00 |